createdAt,value
2019-02-28T00:01:06.424Z,61.40
2019-02-28T00:03:39.144Z,61.40
2019-02-28T00:06:12.814Z,61.20
2019-02-28T00:08:45.646Z,61.40
2019-02-28T00:11:17.865Z,60.20
2019-02-28T00:13:52.326Z,59.60
2019-02-28T00:16:26.184Z,59.50
2019-02-28T00:18:58.885Z,59.60
2019-02-28T00:21:31.534Z,59.90
2019-02-28T00:24:04.604Z,60.20
2019-02-28T00:26:37.164Z,60.60
2019-02-28T00:29:10.045Z,60.30
2019-02-28T00:31:43.106Z,60.90
2019-02-28T00:34:16.347Z,60.30
2019-02-28T00:36:50.315Z,60.60
2019-02-28T00:39:23.384Z,60.60
2019-02-28T00:41:55.504Z,60.30
2019-02-28T00:44:31.275Z,59.80
2019-02-28T00:47:02.584Z,59.70
2019-02-28T00:49:35.951Z,59.60
2019-02-28T00:52:08.845Z,59.60
2019-02-28T00:54:44.340Z,59.50
2019-02-28T00:57:16.024Z,58.80
2019-02-28T00:59:49.546Z,59.00
2019-02-28T01:02:21.924Z,58.90
2019-02-28T01:04:54.707Z,59.00
2019-02-28T01:07:27.866Z,59.20
2019-02-28T01:10:01.435Z,59.40
2019-02-28T01:12:34.804Z,60.30
2019-02-28T01:15:10.055Z,60.50
2019-02-28T01:17:42.464Z,60.10
2019-02-28T01:20:16.717Z,60.20
2019-02-28T01:22:49.706Z,60.30
2019-02-28T01:25:23.385Z,61.10
2019-02-28T01:27:55.624Z,61.60
2019-02-28T01:30:27.764Z,63.20
2019-02-28T01:33:00.824Z,65.20
2019-02-28T01:35:37.566Z,65.00
2019-02-28T01:38:08.944Z,65.50
2019-02-28T01:40:41.625Z,65.90
2019-02-28T01:43:15.184Z,66.10
2019-02-28T01:45:48.305Z,67.50
2019-02-28T01:48:22.614Z,68.20
2019-02-28T01:50:56.625Z,68.30
2019-02-28T01:53:29.085Z,69.10
2019-02-28T01:56:02.505Z,69.00
2019-02-28T01:58:35.504Z,69.10
2019-02-28T02:01:06.984Z,69.40
2019-02-28T02:03:40.827Z,69.40
2019-02-28T02:06:14.705Z,69.60
2019-02-28T02:08:46.846Z,65.10
2019-02-28T02:11:19.305Z,62.80
2019-02-28T02:13:52.626Z,63.00
2019-02-28T02:16:27.691Z,62.40
2019-02-28T02:18:59.227Z,61.70
2019-02-28T02:21:31.446Z,61.70
2019-02-28T02:24:05.646Z,61.70
2019-02-28T02:26:38.745Z,61.80
2019-02-28T02:29:10.625Z,61.80
2019-02-28T02:31:43.830Z,62.10
2019-02-28T02:34:16.746Z,62.40
2019-02-28T02:36:54.174Z,62.70
2019-02-28T02:39:25.491Z,62.90
2019-02-28T02:41:58.288Z,62.70
2019-02-28T02:44:32.046Z,62.60
2019-02-28T02:47:06.288Z,62.70
2019-02-28T02:49:39.087Z,62.50
2019-02-28T02:52:11.806Z,62.20
2019-02-28T02:54:44.265Z,61.80
2019-02-28T02:57:16.845Z,61.20
2019-02-28T02:59:49.105Z,60.60
2019-02-28T03:02:22.425Z,63.40
2019-02-28T03:04:58.520Z,63.60
2019-02-28T03:07:29.266Z,64.80
2019-02-28T03:10:01.787Z,64.00
2019-02-28T03:12:34.125Z,62.80
2019-02-28T03:15:06.546Z,64.30
2019-02-28T03:17:39.006Z,65.50
2019-02-28T03:20:11.577Z,66.30
2019-02-28T03:22:44.575Z,66.70
2019-02-28T03:25:17.784Z,65.80
2019-02-28T03:27:55.048Z,64.60
2019-02-28T03:30:28.353Z,63.40
2019-02-28T03:32:59.405Z,63.00
2019-02-28T03:35:41.471Z,63.80
2019-02-28T03:38:10.370Z,62.50
2019-02-28T03:40:41.159Z,61.70
2019-02-28T03:43:13.789Z,61.60
2019-02-28T03:45:46.483Z,61.60
2019-02-28T03:48:18.928Z,61.10
2019-02-28T03:50:55.386Z,60.80
2019-02-28T03:53:25.386Z,61.10
2019-02-28T03:55:57.828Z,61.20
2019-02-28T03:58:29.805Z,60.70
2019-02-28T04:01:08.753Z,60.60
2019-02-28T04:03:36.625Z,60.70
2019-02-28T04:06:10.026Z,60.30
2019-02-28T04:08:42.047Z,60.40
2019-02-28T04:11:14.906Z,61.10
2019-02-28T04:13:47.325Z,61.40
2019-02-28T04:16:20.528Z,61.60
2019-02-28T04:18:53.065Z,62.00
2019-02-28T04:21:25.745Z,62.10
2019-02-28T04:23:58.526Z,62.30
2019-02-28T04:26:31.082Z,62.40
2019-02-28T04:29:04.045Z,62.40
2019-02-28T04:31:36.825Z,62.70
2019-02-28T04:34:13.476Z,63.00
2019-02-28T04:36:44.791Z,63.10
2019-02-28T04:39:17.786Z,63.40
2019-02-28T04:41:49.639Z,63.50
2019-02-28T04:44:22.385Z,64.00
2019-02-28T04:46:55.805Z,64.60
2019-02-28T04:49:28.673Z,64.70
2019-02-28T04:52:01.267Z,64.50
2019-02-28T04:54:33.684Z,64.30
2019-02-28T04:57:06.687Z,64.20
2019-02-28T04:59:39.485Z,63.90
2019-02-28T05:02:12.025Z,62.70
2019-02-28T05:04:45.024Z,62.10
2019-02-28T05:07:18.006Z,62.00
2019-02-28T05:09:50.567Z,61.80
2019-02-28T05:12:23.346Z,61.30
2019-02-28T05:14:58.498Z,61.60
2019-02-28T05:17:30.946Z,61.70
2019-02-28T05:20:03.205Z,62.00
2019-02-28T05:22:36.469Z,61.70
2019-02-28T05:25:09.324Z,61.10
2019-02-28T05:27:41.624Z,60.40
2019-02-28T05:30:18.477Z,60.80
2019-02-28T05:32:49.547Z,61.10
2019-02-28T05:35:25.497Z,61.10
2019-02-28T05:37:56.784Z,61.30
2019-02-28T05:40:29.625Z,61.30
2019-02-28T05:43:02.287Z,61.60
2019-02-28T05:45:34.625Z,61.30
2019-02-28T05:48:07.189Z,60.70
2019-02-28T05:50:40.195Z,60.60
2019-02-28T05:53:14.004Z,61.10
2019-02-28T05:55:46.664Z,60.90
2019-02-28T05:58:20.851Z,61.00
2019-02-28T06:00:53.625Z,63.40
2019-02-28T06:03:25.784Z,62.90
2019-02-28T06:05:58.772Z,63.30
2019-02-28T06:08:32.207Z,63.80
2019-02-28T06:11:03.844Z,63.20
2019-02-28T06:13:37.137Z,62.20
2019-02-28T06:16:12.403Z,62.00
2019-02-28T06:18:44.525Z,61.90
2019-02-28T06:21:17.646Z,62.40
2019-02-28T06:23:50.904Z,64.50
2019-02-28T06:26:23.024Z,66.40
2019-02-28T06:28:55.924Z,67.10
2019-02-28T06:31:29.604Z,68.10
2019-02-28T06:34:05.610Z,68.40
2019-02-28T06:36:37.946Z,68.80
2019-02-28T06:39:11.606Z,69.20
2019-02-28T06:41:44.064Z,68.80
2019-02-28T06:44:17.064Z,69.00
2019-02-28T06:46:49.504Z,68.90
2019-02-28T06:49:22.885Z,68.90
2019-02-28T06:51:56.444Z,69.20
2019-02-28T06:54:28.285Z,69.30
2019-02-28T06:57:00.925Z,68.90
2019-02-28T06:59:36.195Z,68.60
2019-02-28T07:02:09.065Z,68.90
2019-02-28T07:04:45.455Z,68.10
2019-02-28T07:07:17.144Z,67.50
2019-02-28T07:09:49.927Z,67.30
2019-02-28T07:12:22.707Z,67.60
2019-02-28T07:14:54.525Z,67.70
2019-02-28T07:17:27.917Z,68.10
2019-02-28T07:20:01.957Z,68.40
2019-02-28T07:22:34.865Z,68.50
2019-02-28T07:25:09.577Z,69.10
2019-02-28T07:27:42.758Z,68.30
2019-02-28T07:30:18.473Z,68.40
2019-02-28T07:32:50.874Z,68.40
2019-02-28T07:35:24.585Z,68.60
2019-02-28T07:37:58.456Z,68.60
2019-02-28T07:40:30.592Z,67.60
2019-02-28T07:43:03.845Z,67.70
2019-02-28T07:45:36.884Z,67.70
2019-02-28T07:48:09.765Z,67.90
2019-02-28T07:50:43.481Z,67.70
2019-02-28T07:53:16.252Z,67.50
2019-02-28T07:55:48.886Z,67.90
2019-02-28T07:58:21.685Z,68.20
2019-02-28T08:00:54.424Z,68.90
2019-02-28T08:03:27.349Z,69.30
2019-02-28T08:06:04.566Z,69.30
2019-02-28T08:08:34.572Z,69.40
2019-02-28T08:11:08.024Z,68.90
2019-02-28T08:13:40.406Z,68.30
2019-02-28T08:16:13.085Z,67.90
2019-02-28T08:18:45.766Z,66.30
2019-02-28T08:21:19.232Z,64.60
2019-02-28T08:23:52.500Z,64.20
2019-02-28T08:26:24.778Z,63.70
2019-02-28T08:28:57.540Z,62.30
2019-02-28T08:31:32.017Z,61.50
2019-02-28T08:34:04.642Z,60.90
2019-02-28T08:36:37.702Z,61.00
2019-02-28T08:39:18.966Z,60.70
2019-02-28T08:41:51.826Z,58.60
2019-02-28T08:44:24.106Z,58.40
2019-02-28T08:46:57.722Z,56.70
2019-02-28T08:49:29.310Z,56.90
2019-02-28T08:52:02.563Z,56.20
2019-02-28T08:54:36.981Z,55.40
2019-02-28T08:57:09.641Z,55.30
2019-02-28T08:59:42.444Z,53.90
2019-02-28T09:02:14.531Z,53.80
2019-02-28T09:04:50.893Z,52.80
2019-02-28T09:07:22.973Z,53.10
2019-02-28T09:09:54.998Z,52.90
2019-02-28T09:12:29.938Z,52.60
2019-02-28T09:15:01.226Z,52.50
2019-02-28T09:17:33.397Z,52.40
2019-02-28T09:20:07.466Z,52.80
2019-02-28T09:22:40.219Z,52.80
2019-02-28T09:25:14.217Z,52.80
2019-02-28T09:27:47.269Z,52.30
2019-02-28T09:30:26.580Z,52.70
2019-02-28T09:32:58.240Z,53.00
2019-02-28T09:35:30.525Z,53.10
2019-02-28T09:38:06.357Z,53.20
2019-02-28T09:40:36.750Z,53.20
2019-02-28T09:43:09.565Z,53.40
2019-02-28T09:45:42.365Z,53.30
2019-02-28T09:48:14.903Z,52.40
2019-02-28T09:50:48.038Z,52.00
2019-02-28T09:53:19.834Z,51.90
2019-02-28T09:55:51.973Z,51.70
2019-02-28T09:58:26.216Z,51.60
2019-02-28T10:00:58.593Z,50.80
2019-02-28T10:03:30.974Z,51.30
2019-02-28T10:06:03.495Z,50.40
2019-02-28T10:08:36.874Z,50.90
2019-02-28T10:11:09.433Z,49.70
2019-02-28T10:13:41.775Z,50.20
2019-02-28T10:16:16.758Z,50.20
2019-02-28T10:18:48.173Z,49.80
2019-02-28T10:21:20.512Z,49.70
2019-02-28T10:23:56.814Z,49.20
2019-02-28T10:26:27.515Z,49.50
2019-02-28T10:29:01.198Z,48.90
2019-02-28T10:31:37.344Z,48.70
2019-02-28T10:34:09.687Z,48.70
2019-02-28T10:36:44.397Z,48.60
2019-02-28T10:39:16.308Z,48.60
2019-02-28T10:41:49.408Z,47.90
2019-02-28T10:44:22.171Z,48.00
2019-02-28T10:46:54.604Z,47.50
2019-02-28T10:49:27.310Z,47.00
2019-02-28T10:52:00.090Z,47.70
2019-02-28T10:54:34.011Z,48.10
2019-02-28T10:57:07.611Z,48.40
2019-02-28T10:59:40.666Z,47.70
2019-02-28T11:02:18.953Z,47.20
2019-02-28T11:04:49.398Z,46.30
2019-02-28T11:07:22.268Z,46.30
2019-02-28T11:09:58.482Z,46.20
2019-02-28T11:12:30.412Z,45.30
2019-02-28T11:15:03.809Z,45.00
2019-02-28T11:17:36.230Z,43.40
2019-02-28T11:20:21.658Z,44.40
2019-02-28T11:22:45.409Z,42.80
2019-02-28T11:25:18.234Z,40.90
2019-02-28T11:27:53.726Z,42.00
2019-02-28T11:30:24.892Z,41.00
2019-02-28T11:32:57.288Z,39.30
2019-02-28T11:35:30.594Z,39.80
2019-02-28T11:38:04.906Z,39.10
2019-02-28T11:40:40.404Z,38.80
2019-02-28T11:43:12.362Z,41.30
2019-02-28T11:45:45.262Z,40.90
2019-02-28T11:48:20.111Z,40.70
2019-02-28T11:50:52.065Z,40.30
2019-02-28T11:53:24.796Z,40.40
2019-02-28T11:55:57.341Z,40.70
2019-02-28T11:58:30.497Z,39.30
2019-02-28T12:01:04.238Z,38.30
2019-02-28T12:03:36.619Z,37.30
2019-02-28T12:06:09.477Z,37.30
2019-02-28T12:08:44.907Z,36.80
2019-02-28T12:11:15.876Z,36.30
2019-02-28T12:13:51.696Z,35.40
2019-02-28T12:16:23.657Z,34.50
2019-02-28T12:18:56.216Z,34.20
2019-02-28T12:21:28.736Z,33.60
2019-02-28T12:24:00.710Z,33.80
2019-02-28T12:26:33.937Z,33.40
2019-02-28T12:29:09.358Z,32.50
2019-02-28T12:31:41.137Z,31.80
2019-02-28T12:34:15.147Z,32.30
2019-02-28T12:36:49.364Z,31.90
2019-02-28T12:39:23.704Z,31.30
2019-02-28T12:41:56.565Z,30.60
2019-02-28T12:44:30.190Z,31.00
2019-02-28T12:47:06.442Z,30.60
2019-02-28T12:49:38.739Z,29.60
2019-02-28T12:52:14.508Z,29.70
2019-02-28T12:54:45.935Z,29.60
2019-02-28T12:57:19.280Z,29.70
2019-02-28T12:59:52.623Z,30.00
2019-02-28T13:02:25.366Z,29.70
2019-02-28T13:04:59.726Z,30.20
2019-02-28T13:07:33.849Z,30.00
2019-02-28T13:10:06.407Z,30.00
2019-02-28T13:12:39.326Z,30.00
2019-02-28T13:15:14.229Z,30.00
2019-02-28T13:17:47.511Z,30.30
2019-02-28T13:20:22.111Z,30.40
2019-02-28T13:22:55.651Z,30.70
2019-02-28T13:25:29.991Z,30.80
2019-02-28T13:28:02.917Z,31.10
2019-02-28T13:30:36.063Z,31.40
2019-02-28T13:33:11.009Z,31.40
2019-02-28T13:35:47.144Z,31.10
2019-02-28T13:38:19.730Z,31.40
2019-02-28T13:40:55.093Z,31.90
2019-02-28T13:43:31.981Z,32.10
2019-02-28T13:46:05.030Z,32.00
2019-02-28T13:48:37.470Z,32.40
2019-02-28T13:51:10.806Z,32.00
2019-02-28T13:53:44.137Z,32.10
2019-02-28T13:56:18.071Z,32.40
2019-02-28T13:58:53.677Z,32.40
2019-02-28T14:01:24.781Z,33.00
2019-02-28T14:03:57.658Z,31.70
2019-02-28T14:06:29.761Z,32.00
2019-02-28T14:09:02.817Z,31.70
2019-02-28T14:11:37.084Z,32.30
2019-02-28T14:14:09.458Z,32.60
2019-02-28T14:16:42.119Z,32.70
2019-02-28T14:19:16.803Z,32.50
2019-02-28T14:21:48.257Z,32.60
2019-02-28T14:24:20.637Z,32.30
2019-02-28T14:26:53.415Z,32.30
2019-02-28T14:29:25.735Z,32.50
2019-02-28T14:31:58.436Z,32.60
2019-02-28T14:34:31.195Z,32.20
2019-02-28T14:37:04.515Z,31.90
2019-02-28T14:39:36.476Z,32.30
2019-02-28T14:42:08.628Z,32.00
2019-02-28T14:44:40.956Z,31.80
2019-02-28T14:47:13.655Z,32.00
2019-02-28T14:49:45.860Z,32.30
2019-02-28T14:52:17.587Z,32.50
2019-02-28T14:54:49.459Z,33.00
2019-02-28T14:57:21.918Z,33.30
2019-02-28T14:59:54.369Z,34.40
2019-02-28T15:02:28.717Z,34.80
2019-02-28T15:05:00.557Z,36.80
2019-02-28T15:07:35.326Z,37.70
2019-02-28T15:10:09.680Z,37.80
2019-02-28T15:12:42.861Z,38.00
2019-02-28T15:15:18.025Z,38.40
2019-02-28T15:17:51.629Z,38.70
2019-02-28T15:20:24.618Z,38.70
2019-02-28T15:22:59.587Z,38.70
2019-02-28T15:25:32.140Z,38.90
2019-02-28T15:28:05.100Z,38.60
2019-02-28T15:30:38.398Z,38.60
2019-02-28T15:33:11.921Z,38.60
2019-02-28T15:35:46.531Z,38.40
2019-02-28T15:38:19.439Z,38.30
2019-02-28T15:40:52.279Z,38.30
2019-02-28T15:43:24.818Z,38.40
2019-02-28T15:45:57.462Z,38.60
2019-02-28T15:48:31.377Z,39.20
2019-02-28T15:51:05.578Z,39.10
2019-02-28T15:53:39.239Z,39.70
2019-02-28T15:56:13.634Z,39.70
2019-02-28T15:58:46.702Z,40.10
2019-02-28T16:01:20.502Z,40.60
2019-02-28T16:03:52.980Z,40.50
2019-02-28T16:06:26.179Z,40.50
2019-02-28T16:08:58.945Z,40.80
2019-02-28T16:11:31.959Z,40.70
2019-02-28T16:14:14.011Z,40.70
2019-02-28T16:16:39.601Z,40.90
2019-02-28T16:19:12.680Z,41.10
2019-02-28T16:21:45.262Z,40.90
2019-02-28T16:24:18.920Z,41.20
2019-02-28T16:26:53.395Z,41.20
2019-02-28T16:29:25.560Z,41.30
2019-02-28T16:31:57.918Z,41.60
2019-02-28T16:34:31.159Z,41.90
2019-02-28T16:37:03.899Z,41.90
2019-02-28T16:39:37.139Z,41.50
2019-02-28T16:42:11.590Z,41.90
2019-02-28T16:44:43.280Z,42.50
2019-02-28T16:47:15.880Z,42.80
2019-02-28T16:49:48.999Z,42.80
2019-02-28T16:52:22.802Z,43.30
2019-02-28T16:54:56.271Z,43.40
2019-02-28T16:57:29.818Z,43.80
2019-02-28T17:00:04.018Z,44.00
2019-02-28T17:02:36.778Z,44.50
2019-02-28T17:05:09.219Z,44.00
2019-02-28T17:07:43.654Z,44.60
2019-02-28T17:10:18.542Z,45.40
2019-02-28T17:13:12.905Z,45.70
2019-02-28T17:15:55.892Z,45.60
2019-02-28T17:18:26.278Z,45.60
2019-02-28T17:20:59.779Z,45.80
2019-02-28T17:23:33.616Z,46.20
2019-02-28T17:26:07.439Z,46.30
2019-02-28T17:29:01.639Z,47.00
2019-02-28T17:31:53.618Z,47.00
2019-02-28T17:34:26.622Z,45.60
2019-02-28T17:36:59.158Z,45.90
2019-02-28T17:39:33.312Z,46.00
2019-02-28T17:42:08.785Z,45.50
2019-02-28T17:45:16.470Z,46.00
2019-02-28T17:48:25.619Z,45.80
2019-02-28T17:51:55.507Z,45.60
2019-02-28T17:54:54.208Z,45.90
2019-02-28T17:57:56.843Z,45.40
2019-02-28T18:01:15.219Z,44.90
2019-02-28T18:04:13.239Z,44.70
2019-02-28T18:07:26.423Z,43.70
2019-02-28T18:10:29.977Z,43.10
2019-02-28T18:13:55.261Z,42.70
2019-02-28T18:16:54.577Z,42.80
2019-02-28T18:19:55.760Z,42.80
2019-02-28T18:23:10.318Z,42.70
2019-02-28T18:26:05.723Z,43.50
2019-02-28T18:29:26.878Z,46.00
2019-02-28T18:31:59.058Z,47.00
2019-02-28T18:34:33.396Z,46.80
2019-02-28T18:37:06.528Z,47.00
2019-02-28T18:39:40.039Z,46.60
2019-02-28T18:42:16.123Z,45.70
2019-02-28T18:44:47.240Z,45.80
2019-02-28T18:47:21.258Z,45.80
2019-02-28T18:49:53.943Z,45.80
2019-02-28T18:52:27.578Z,46.00
2019-02-28T18:55:06.151Z,46.00
2019-02-28T18:57:36.038Z,46.40
2019-02-28T19:00:10.918Z,46.60
2019-02-28T19:02:43.326Z,46.70
2019-02-28T19:05:16.278Z,47.00
2019-02-28T19:07:49.058Z,47.00
2019-02-28T19:10:22.160Z,47.10
2019-02-28T19:12:55.580Z,47.40
2019-02-28T19:15:28.638Z,47.60
2019-02-28T19:18:00.659Z,48.00
2019-02-28T19:20:33.898Z,48.20
2019-02-28T19:23:06.421Z,48.40
2019-02-28T19:25:38.658Z,48.60
2019-02-28T19:28:11.060Z,48.50
2019-02-28T19:30:44.123Z,49.10
2019-02-28T19:33:16.419Z,49.20
2019-02-28T19:35:49.338Z,49.60
2019-02-28T19:38:22.378Z,49.70
2019-02-28T19:40:55.979Z,49.60
2019-02-28T19:43:29.579Z,49.90
2019-02-28T19:46:03.200Z,49.90
2019-02-28T19:48:37.738Z,49.90
2019-02-28T19:51:10.800Z,50.00
2019-02-28T19:53:44.217Z,50.00
2019-02-28T19:56:18.118Z,50.10
2019-02-28T19:58:51.397Z,50.40
2019-02-28T20:01:23.184Z,51.00
2019-02-28T20:03:55.860Z,50.50
2019-02-28T20:06:28.898Z,50.60
2019-02-28T20:09:01.299Z,50.80
2019-02-28T20:11:33.999Z,50.60
2019-02-28T20:14:07.179Z,50.70
2019-02-28T20:16:40.219Z,50.40
2019-02-28T20:19:12.781Z,50.30
2019-02-28T20:21:44.858Z,50.30
2019-02-28T20:24:18.539Z,50.30
2019-02-28T20:26:50.799Z,50.40
2019-02-28T20:29:24.158Z,50.50
2019-02-28T20:31:56.821Z,50.60
2019-02-28T20:34:29.299Z,50.70
2019-02-28T20:37:01.739Z,50.60
2019-02-28T20:39:34.420Z,50.80
2019-02-28T20:42:07.262Z,51.40
2019-02-28T20:44:40.940Z,52.30
2019-02-28T20:47:15.499Z,53.10
2019-02-28T20:49:48.382Z,53.40
2019-02-28T20:52:21.643Z,54.00
2019-02-28T20:54:53.839Z,53.80
2019-02-28T20:57:26.659Z,53.70
2019-02-28T20:59:59.919Z,53.40
2019-02-28T21:02:33.477Z,53.30
2019-02-28T21:05:06.659Z,53.20
2019-02-28T21:07:39.459Z,53.30
2019-02-28T21:10:12.598Z,53.30
2019-02-28T21:12:45.498Z,53.20
2019-02-28T21:15:18.519Z,53.00
2019-02-28T21:17:51.537Z,52.90
2019-02-28T21:20:23.539Z,52.80
2019-02-28T21:22:56.390Z,52.80
2019-02-28T21:25:29.919Z,53.20
2019-02-28T21:28:03.699Z,53.30
2019-02-28T21:30:36.737Z,53.50
2019-02-28T21:33:08.942Z,53.50
2019-02-28T21:35:41.558Z,53.30
2019-02-28T21:38:15.658Z,53.20
2019-02-28T21:40:48.402Z,53.20
2019-02-28T21:43:22.408Z,53.00
2019-02-28T21:45:55.159Z,53.10
2019-02-28T21:48:27.598Z,53.30
2019-02-28T21:51:00.359Z,53.60
2019-02-28T21:53:33.277Z,53.70
2019-02-28T21:56:06.879Z,53.80
2019-02-28T21:58:39.158Z,53.70
2019-02-28T22:01:11.357Z,53.60
2019-02-28T22:03:44.939Z,53.60
2019-02-28T22:06:18.500Z,54.20
2019-02-28T22:08:50.037Z,54.00
2019-02-28T22:11:23.099Z,53.90
2019-02-28T22:13:56.438Z,53.70
2019-02-28T22:16:28.579Z,53.70
2019-02-28T22:19:00.657Z,53.80
2019-02-28T22:21:33.219Z,53.70
2019-02-28T22:24:05.177Z,53.60
2019-02-28T22:26:38.178Z,53.60
2019-02-28T22:29:09.878Z,53.70
2019-02-28T22:31:52.516Z,53.80
2019-02-28T22:34:52.898Z,53.80
2019-02-28T22:37:25.098Z,53.50
2019-02-28T22:39:57.558Z,53.50
2019-02-28T22:42:30.601Z,53.40
2019-02-28T22:45:03.506Z,53.30
2019-02-28T22:47:35.678Z,53.20
2019-02-28T22:50:08.598Z,53.30
2019-02-28T22:52:42.338Z,53.20
2019-02-28T22:55:15.337Z,53.30
2019-02-28T22:57:48.681Z,53.30
2019-02-28T23:00:47.618Z,53.10
2019-02-28T23:03:20.157Z,53.00
2019-02-28T23:05:52.999Z,53.20
2019-02-28T23:08:26.619Z,53.10
2019-02-28T23:10:58.883Z,53.10
2019-02-28T23:13:31.539Z,53.20
2019-02-28T23:16:04.119Z,53.20
2019-02-28T23:18:36.139Z,53.20
2019-02-28T23:21:08.980Z,53.20
2019-02-28T23:23:41.598Z,53.10
2019-02-28T23:26:17.579Z,53.00
2019-02-28T23:29:08.460Z,53.00
2019-02-28T23:32:13.559Z,53.20
2019-02-28T23:34:53.578Z,53.20
2019-02-28T23:37:26.197Z,53.20
2019-02-28T23:39:59.277Z,53.40
2019-02-28T23:42:31.875Z,53.20
2019-02-28T23:45:04.298Z,53.20
2019-02-28T23:47:36.618Z,53.30
2019-02-28T23:50:10.597Z,53.30
2019-02-28T23:52:43.978Z,53.30
2019-02-28T23:55:16.240Z,53.30
2019-02-28T23:57:49.098Z,53.30
